createdAt,value
2018-04-29T00:02:23.964Z,14.63
2018-04-29T00:05:01.807Z,13.00
2018-04-29T00:07:38.484Z,14.17
2018-04-29T00:10:17.396Z,12.87
2018-04-29T00:12:54.415Z,12.40
2018-04-29T00:15:31.516Z,12.80
2018-04-29T00:18:09.556Z,14.47
2018-04-29T00:20:46.448Z,11.40
2018-04-29T00:23:23.747Z,11.50
2018-04-29T00:26:04.392Z,13.30
2018-04-29T00:28:44.063Z,14.20
2018-04-29T00:31:24.097Z,11.03
2018-04-29T00:34:04.582Z,12.30
2018-04-29T00:36:41.421Z,10.87
2018-04-29T00:39:23.380Z,10.60
2018-04-29T00:42:00.871Z,11.10
2018-04-29T00:44:44.378Z,9.53
2018-04-29T00:47:21.607Z,12.10
2018-04-29T00:49:59.056Z,13.53
2018-04-29T00:52:36.076Z,11.03
2018-04-29T00:55:13.248Z,12.57
2018-04-29T00:57:50.555Z,8.00
2018-04-29T01:00:31.370Z,11.87
2018-04-29T01:03:07.979Z,9.73
2018-04-29T01:05:45.446Z,13.47
2018-04-29T01:08:28.887Z,11.27
2018-04-29T01:11:08.964Z,10.00
2018-04-29T01:13:48.832Z,9.97
2018-04-29T01:16:28.255Z,12.33
2018-04-29T01:19:07.650Z,9.63
2018-04-29T01:21:49.247Z,8.97
2018-04-29T01:24:26.208Z,9.60
2018-04-29T01:27:04.392Z,9.20
2018-04-29T01:29:41.942Z,11.27
2018-04-29T01:32:18.669Z,11.87
2018-04-29T01:34:56.309Z,7.93
2018-04-29T01:37:35.108Z,8.10
2018-04-29T01:40:13.289Z,11.43
2018-04-29T01:42:50.068Z,12.07
2018-04-29T01:45:30.590Z,18.07
2018-04-29T01:48:11.340Z,14.27
2018-04-29T01:50:50.275Z,16.30
2018-04-29T01:53:31.877Z,19.73
2018-04-29T01:56:09.915Z,14.33
2018-04-29T01:58:55.699Z,15.57
2018-04-29T02:01:36.553Z,13.60
2018-04-29T02:04:14.092Z,13.70
2018-04-29T02:06:53.974Z,11.87
2018-04-29T02:09:32.353Z,7.80
2018-04-29T02:12:09.465Z,14.10
2018-04-29T02:14:47.653Z,7.90
2018-04-29T02:17:24.336Z,10.43
2018-04-29T02:20:01.102Z,6.53
2018-04-29T02:22:43.038Z,10.70
2018-04-29T02:25:20.569Z,8.47
2018-04-29T02:27:57.338Z,7.93
2018-04-29T02:30:39.178Z,8.00
2018-04-29T02:33:16.456Z,8.20
2018-04-29T02:35:53.605Z,10.87
2018-04-29T02:38:30.922Z,11.37
2018-04-29T02:41:07.956Z,10.30
2018-04-29T02:43:44.926Z,13.83
2018-04-29T02:46:21.919Z,18.10
2018-04-29T02:48:58.816Z,17.40
2018-04-29T02:51:35.764Z,13.70
2018-04-29T02:54:12.983Z,14.20
2018-04-29T02:56:49.766Z,13.80
2018-04-29T02:59:26.794Z,13.23
2018-04-29T03:02:03.609Z,12.40
2018-04-29T03:04:40.589Z,12.57
2018-04-29T03:07:18.642Z,11.97
2018-04-29T03:09:57.532Z,12.37
2018-04-29T03:12:34.952Z,14.20
2018-04-29T03:15:11.622Z,9.13
2018-04-29T03:17:49.904Z,9.37
2018-04-29T03:20:27.916Z,11.13
2018-04-29T03:23:04.850Z,11.43
2018-04-29T03:25:43.869Z,14.33
2018-04-29T03:28:26.568Z,9.00
2018-04-29T03:31:03.329Z,11.63
2018-04-29T03:33:40.446Z,12.33
2018-04-29T03:36:17.580Z,10.80
2018-04-29T03:38:54.506Z,11.93
2018-04-29T03:41:32.275Z,15.00
2018-04-29T03:44:09.536Z,12.30
2018-04-29T03:46:47.235Z,12.90
2018-04-29T03:49:24.423Z,15.40
2018-04-29T03:52:05.061Z,11.47
2018-04-29T03:54:42.223Z,12.47
2018-04-29T03:57:29.940Z,12.87
2018-04-29T04:01:19.947Z,12.53
2018-04-29T04:03:59.633Z,8.57
2018-04-29T04:06:36.589Z,13.17
2018-04-29T04:09:15.147Z,7.97
2018-04-29T04:11:51.807Z,7.50
2018-04-29T04:14:31.371Z,10.43
2018-04-29T04:17:10.058Z,10.30
2018-04-29T04:19:49.048Z,10.43
2018-04-29T04:22:30.475Z,7.30
2018-04-29T04:25:09.476Z,6.97
2018-04-29T04:27:48.792Z,8.00
2018-04-29T04:30:27.974Z,9.17
2018-04-29T04:33:05.555Z,9.40
2018-04-29T04:35:44.135Z,15.80
2018-04-29T04:38:21.684Z,10.53
2018-04-29T04:40:59.087Z,8.30
2018-04-29T04:43:36.349Z,10.80
2018-04-29T04:46:16.763Z,11.27
2018-04-29T04:48:54.676Z,11.13
2018-04-29T04:51:31.432Z,11.87
2018-04-29T04:54:09.706Z,11.13
2018-04-29T04:56:46.775Z,11.63
2018-04-29T04:59:23.535Z,14.77
2018-04-29T05:02:01.494Z,14.07
2018-04-29T05:04:38.230Z,12.37
2018-04-29T05:07:16.443Z,14.10
2018-04-29T05:09:57.800Z,12.87
2018-04-29T05:12:34.918Z,14.13
2018-04-29T05:15:13.991Z,15.87
2018-04-29T05:17:54.654Z,12.87
2018-04-29T05:20:32.419Z,12.40
2018-04-29T05:23:09.256Z,13.03
2018-04-29T05:25:46.136Z,15.47
2018-04-29T05:28:23.121Z,15.00
2018-04-29T05:31:00.589Z,16.73
2018-04-29T05:33:42.523Z,12.70
2018-04-29T05:36:20.095Z,11.20
2018-04-29T05:39:01.220Z,8.73
2018-04-29T05:41:42.588Z,8.30
2018-04-29T05:44:21.166Z,11.37
2018-04-29T05:47:02.813Z,9.37
2018-04-29T05:49:42.643Z,7.87
2018-04-29T05:52:22.748Z,14.70
2018-04-29T05:55:02.958Z,11.23
2018-04-29T05:57:44.297Z,13.37
2018-04-29T06:00:22.809Z,11.07
2018-04-29T06:03:08.010Z,15.60
2018-04-29T06:05:44.914Z,10.90
2018-04-29T06:08:30.868Z,13.23
2018-04-29T06:11:07.740Z,8.67
2018-04-29T06:13:45.699Z,13.03
2018-04-29T06:16:25.755Z,15.30
2018-04-29T06:19:11.429Z,11.30
2018-04-29T06:21:49.253Z,10.80
2018-04-29T06:24:29.002Z,8.67
2018-04-29T06:27:06.391Z,12.13
2018-04-29T06:29:46.530Z,13.10
2018-04-29T06:32:26.321Z,10.40
2018-04-29T06:35:06.390Z,8.87
2018-04-29T06:37:48.697Z,8.93
2018-04-29T06:40:26.489Z,7.93
2018-04-29T06:43:09.638Z,12.27
2018-04-29T06:45:47.580Z,8.10
2018-04-29T06:48:27.700Z,11.57
2018-04-29T06:51:08.344Z,7.63
2018-04-29T06:53:54.773Z,10.47
2018-04-29T06:56:32.059Z,10.53
2018-04-29T06:59:08.972Z,11.47
2018-04-29T07:01:51.114Z,11.07
2018-04-29T07:04:29.977Z,8.20
2018-04-29T07:07:09.934Z,10.70
2018-04-29T07:09:50.912Z,9.80
2018-04-29T07:12:31.468Z,7.73
2018-04-29T07:15:11.835Z,9.30
2018-04-29T07:17:56.848Z,9.40
2018-04-29T07:20:33.893Z,9.33
2018-04-29T07:26:09.008Z,10.63
2018-04-29T07:28:49.294Z,14.20
2018-04-29T07:31:33.532Z,7.13
2018-04-29T07:34:11.845Z,9.83
2018-04-29T07:36:59.585Z,10.50
2018-04-29T07:39:37.384Z,11.73
2018-04-29T07:42:14.861Z,14.33
2018-04-29T07:44:58.779Z,12.23
2018-04-29T07:47:36.185Z,10.37
2018-04-29T07:53:13.709Z,10.93
2018-04-29T07:55:54.312Z,7.97
2018-04-29T07:58:38.077Z,8.43
2018-04-29T08:01:16.740Z,9.10
2018-04-29T08:03:57.498Z,10.57
2018-04-29T08:06:36.160Z,12.07
2018-04-29T08:09:16.295Z,12.00
2018-04-29T08:11:56.181Z,10.77
2018-04-29T08:14:37.117Z,9.50
2018-04-29T08:17:19.842Z,10.97
2018-04-29T08:20:04.720Z,9.40
2018-04-29T08:22:42.184Z,9.17
2018-04-29T08:25:20.028Z,10.77
2018-04-29T08:28:02.435Z,7.57
2018-04-29T08:30:40.491Z,10.30
2018-04-29T08:33:21.984Z,6.67
2018-04-29T08:36:01.328Z,6.73
2018-04-29T08:38:40.398Z,7.13
2018-04-29T08:41:23.190Z,7.87
2018-04-29T08:44:01.757Z,10.90
2018-04-29T08:46:41.019Z,6.13
2018-04-29T08:49:24.348Z,5.67
2018-04-29T08:52:04.379Z,5.37
2018-04-29T08:54:41.829Z,6.40
2018-04-29T08:57:22.456Z,5.50
2018-04-29T09:00:04.167Z,8.90
2018-04-29T09:02:46.726Z,5.87
2018-04-29T09:05:24.583Z,11.80
2018-04-29T09:08:04.855Z,9.03
2018-04-29T09:10:44.122Z,7.37
2018-04-29T09:13:26.413Z,6.03
2018-04-29T09:16:06.279Z,11.50
2018-04-29T09:18:50.542Z,7.67
2018-04-29T09:21:28.395Z,6.00
2018-04-29T09:24:07.175Z,9.93
2018-04-29T09:26:50.598Z,6.33
2018-04-29T09:29:27.820Z,5.33
2018-04-29T09:32:08.360Z,7.67
2018-04-29T09:34:48.358Z,7.07
2018-04-29T09:37:27.271Z,7.43
2018-04-29T09:40:09.357Z,9.23
2018-04-29T09:42:48.525Z,10.33
2018-04-29T09:45:32.008Z,7.93
2018-04-29T09:48:14.654Z,8.67
2018-04-29T09:50:52.452Z,8.80
2018-04-29T09:53:37.675Z,9.17
2018-04-29T09:56:14.866Z,9.33
2018-04-29T09:58:55.936Z,7.33
2018-04-29T10:01:36.150Z,6.63
2018-04-29T10:04:14.189Z,7.00
2018-04-29T10:06:55.976Z,6.83
2018-04-29T10:09:35.619Z,7.50
2018-04-29T10:12:12.602Z,7.00
2018-04-29T10:14:54.930Z,8.73
2018-04-29T10:17:33.167Z,6.73
2018-04-29T10:20:12.883Z,5.43
2018-04-29T10:22:53.454Z,4.27
2018-04-29T10:25:32.470Z,5.00
2018-04-29T10:28:16.046Z,4.90
2018-04-29T10:30:54.005Z,9.03
2018-04-29T10:33:35.128Z,7.77
2018-04-29T10:36:14.806Z,6.27
2018-04-29T10:38:55.131Z,5.30
2018-04-29T10:41:34.965Z,5.17
2018-04-29T10:44:15.443Z,6.87
2018-04-29T10:46:57.491Z,8.03
2018-04-29T10:52:20.343Z,4.13
2018-04-29T10:54:59.835Z,5.57
2018-04-29T10:57:37.699Z,6.37
2018-04-29T11:00:23.905Z,6.97
2018-04-29T11:03:00.629Z,4.63
2018-04-29T11:05:38.566Z,4.37
2018-04-29T11:08:19.258Z,5.63
2018-04-29T11:10:57.589Z,6.70
2018-04-29T11:13:45.318Z,8.50
2018-04-29T11:16:22.757Z,4.77
2018-04-29T11:18:59.795Z,8.73
2018-04-29T11:21:40.923Z,5.77
2018-04-29T11:24:21.855Z,5.63
2018-04-29T11:27:04.134Z,4.70
2018-04-29T11:29:41.110Z,7.90
2018-04-29T11:32:21.324Z,4.37
2018-04-29T11:35:04.748Z,5.00
2018-04-29T11:37:42.841Z,5.10
2018-04-29T11:40:23.274Z,4.33
2018-04-29T11:43:05.470Z,5.67
2018-04-29T11:45:44.070Z,5.53
2018-04-29T11:48:40.437Z,5.10
2018-04-29T11:51:25.148Z,5.63
2018-04-29T11:54:10.497Z,4.27
2018-04-29T11:59:16.322Z,6.83
2018-04-29T12:05:05.354Z,8.23
2018-04-29T12:07:47.901Z,4.57
2018-04-29T12:10:26.447Z,6.53
2018-04-29T12:13:07.087Z,4.40
2018-04-29T12:15:47.373Z,4.93
2018-04-29T12:18:26.007Z,6.37
2018-04-29T12:21:08.500Z,4.83
2018-04-29T12:23:45.792Z,5.93
2018-04-29T12:26:31.454Z,8.63
2018-04-29T12:29:08.294Z,5.47
2018-04-29T12:31:48.424Z,6.60
2018-04-29T12:34:30.137Z,4.23
2018-04-29T12:37:10.095Z,6.63
2018-04-29T12:39:48.234Z,5.73
2018-04-29T12:42:31.777Z,3.93
2018-04-29T12:45:11.474Z,3.60
2018-04-29T12:47:50.068Z,4.43
2018-04-29T12:50:32.970Z,3.20
2018-04-29T12:53:13.402Z,4.33
2018-04-29T12:55:54.080Z,5.53
2018-04-29T12:58:36.709Z,4.60
2018-04-29T13:01:18.279Z,4.77
2018-04-29T13:03:55.225Z,7.23
2018-04-29T13:06:34.042Z,4.43
2018-04-29T13:09:16.821Z,9.53
2018-04-29T13:11:56.019Z,6.50
2018-04-29T13:14:35.025Z,4.23
2018-04-29T13:17:17.252Z,5.40
2018-04-29T13:19:55.864Z,6.57
2018-04-29T13:22:36.143Z,3.30
2018-04-29T13:25:16.575Z,6.13
2018-04-29T13:27:56.303Z,5.63
2018-04-29T13:30:37.399Z,6.93
2018-04-29T13:33:17.305Z,6.67
2018-04-29T13:35:56.187Z,6.67
2018-04-29T13:38:37.487Z,6.20
2018-04-29T13:41:17.643Z,3.47
2018-04-29T13:43:57.445Z,5.77
2018-04-29T13:46:38.479Z,4.63
2018-04-29T13:49:17.984Z,6.17
2018-04-29T13:51:58.206Z,6.53
2018-04-29T13:54:42.211Z,3.67
2018-04-29T13:57:20.430Z,4.47
2018-04-29T14:00:06.168Z,4.90
2018-04-29T14:02:46.720Z,3.53
2018-04-29T14:05:23.648Z,5.97
2018-04-29T14:08:21.340Z,3.80
2018-04-29T14:11:08.363Z,5.33
2018-04-29T14:13:47.595Z,3.73
2018-04-29T14:16:27.107Z,5.50
2018-04-29T14:19:09.545Z,6.83
2018-04-29T14:21:46.796Z,5.07
2018-04-29T14:24:26.673Z,3.60
2018-04-29T14:27:09.043Z,5.60
2018-04-29T14:29:46.874Z,3.93
2018-04-29T14:32:26.025Z,4.70
2018-04-29T14:35:07.908Z,5.90
2018-04-29T14:37:45.922Z,7.53
2018-04-29T14:40:23.012Z,5.97
2018-04-29T14:43:06.049Z,10.30
2018-04-29T14:45:43.006Z,6.83
2018-04-29T14:48:30.467Z,5.27
2018-04-29T14:51:07.221Z,4.90
2018-04-29T14:53:46.965Z,5.67
2018-04-29T14:56:30.889Z,6.77
2018-04-29T14:59:08.560Z,4.17
2018-04-29T15:01:46.144Z,4.17
2018-04-29T15:04:29.907Z,6.73
2018-04-29T15:07:10.631Z,6.03
2018-04-29T15:09:49.077Z,3.67
2018-04-29T15:12:34.319Z,7.90
2018-04-29T15:15:11.578Z,4.37
2018-04-29T15:17:59.579Z,11.10
2018-04-29T15:20:48.856Z,5.60
2018-04-29T15:23:29.119Z,4.57
2018-04-29T15:26:09.276Z,5.03
2018-04-29T15:28:57.128Z,5.20
2018-04-29T15:31:39.450Z,5.17
2018-04-29T15:34:17.777Z,7.13
2018-04-29T15:37:08.773Z,6.30
2018-04-29T15:39:55.653Z,5.80
2018-04-29T15:42:33.439Z,7.17
2018-04-29T15:45:11.175Z,6.13
2018-04-29T15:47:53.517Z,5.27
2018-04-29T15:50:32.784Z,6.97
2018-04-29T15:53:19.293Z,5.70
2018-04-29T15:55:56.055Z,6.13
2018-04-29T15:58:34.719Z,12.27
2018-04-29T16:01:22.925Z,9.10
2018-04-29T16:04:13.560Z,7.60
2018-04-29T16:06:55.926Z,5.73
2018-04-29T16:09:34.861Z,9.30
2018-04-29T16:12:15.461Z,8.00
2018-04-29T16:14:56.385Z,7.73
2018-04-29T16:17:36.034Z,6.67
2018-04-29T16:20:15.451Z,7.27
2018-04-29T16:22:58.034Z,7.63
2018-04-29T16:25:38.477Z,10.27
2018-04-29T16:28:18.476Z,11.37
2018-04-29T16:30:57.634Z,9.73
2018-04-29T16:33:38.791Z,7.33
2018-04-29T16:36:18.070Z,6.43
2018-04-29T16:40:02.874Z,5.57
2018-04-29T16:42:40.524Z,7.80
2018-04-29T16:46:21.842Z,8.17
2018-04-29T16:48:58.599Z,4.77
2018-04-29T16:51:44.092Z,6.10
2018-04-29T16:54:21.557Z,7.20
2018-04-29T16:57:00.668Z,5.83
2018-04-29T16:59:41.338Z,6.07
2018-04-29T17:02:21.495Z,6.57
2018-04-29T17:05:02.573Z,4.73
2018-04-29T17:07:44.370Z,4.80
2018-04-29T17:10:23.049Z,7.13
2018-04-29T17:13:03.525Z,6.00
2018-04-29T17:15:55.879Z,5.73
2018-04-29T17:18:44.401Z,5.97
2018-04-29T17:21:23.304Z,6.77
2018-04-29T17:24:04.451Z,8.43
2018-04-29T17:26:42.420Z,7.93
2018-04-29T17:29:24.366Z,7.90
2018-04-29T17:32:06.619Z,8.03
2018-04-29T17:34:43.401Z,7.77
2018-04-29T17:37:24.811Z,8.00
2018-04-29T17:40:04.836Z,9.47
2018-04-29T17:42:59.669Z,6.77
2018-04-29T17:45:42.813Z,9.20
2018-04-29T17:48:35.750Z,8.53
2018-04-29T17:51:12.491Z,8.47
2018-04-29T17:53:49.296Z,8.27
2018-04-29T17:56:28.336Z,11.60
2018-04-29T17:59:12.723Z,7.17
2018-04-29T18:01:49.541Z,7.77
2018-04-29T18:04:28.970Z,9.17
2018-04-29T18:07:13.657Z,9.50
2018-04-29T18:09:51.055Z,11.90
2018-04-29T18:12:30.925Z,9.93
2018-04-29T18:15:12.907Z,12.87
2018-04-29T18:17:52.151Z,13.00
2018-04-29T18:20:32.497Z,11.13
2018-04-29T18:23:14.532Z,12.13
2018-04-29T18:25:53.325Z,11.10
2018-04-29T18:28:35.326Z,13.33
2018-04-29T18:31:12.859Z,11.80
2018-04-29T18:33:52.728Z,11.30
2018-04-29T18:36:33.905Z,10.87
2018-04-29T18:39:13.288Z,9.33
2018-04-29T18:41:55.308Z,12.33
2018-04-29T18:44:32.755Z,10.10
2018-04-29T18:47:21.476Z,11.53
2018-04-29T18:49:58.449Z,11.13
2018-04-29T18:52:35.809Z,15.00
2018-04-29T18:55:19.103Z,11.87
2018-04-29T18:57:56.677Z,11.80
2018-04-29T19:00:34.911Z,11.83
2018-04-29T19:03:17.496Z,14.03
2018-04-29T19:06:02.559Z,10.77
2018-04-29T19:08:44.491Z,11.83
2018-04-29T19:11:21.989Z,13.43
2018-04-29T19:13:58.688Z,10.83
2018-04-29T19:16:39.937Z,11.30
2018-04-29T19:19:23.111Z,11.17
2018-04-29T19:22:00.067Z,11.93
2018-04-29T19:24:41.504Z,11.03
2018-04-29T19:27:23.016Z,15.03
2018-04-29T19:30:00.337Z,13.90
2018-04-29T19:32:46.077Z,11.83
2018-04-29T19:35:23.575Z,12.77
2018-04-29T19:38:00.286Z,11.60
2018-04-29T19:40:41.297Z,13.17
2018-04-29T19:43:18.827Z,11.17
2018-04-29T19:46:08.401Z,10.67
2018-04-29T19:48:45.048Z,14.77
2018-04-29T19:51:25.406Z,13.03
2018-04-29T19:54:06.879Z,13.03
2018-04-29T19:56:44.843Z,34.77
2018-04-29T19:59:27.612Z,20.70
2018-04-29T20:02:04.917Z,17.63
2018-04-29T20:04:42.400Z,14.63
2018-04-29T20:07:24.138Z,18.50
2018-04-29T20:10:05.070Z,15.23
2018-04-29T20:12:44.673Z,20.77
2018-04-29T20:15:23.527Z,14.60
2018-04-29T20:18:03.459Z,14.10
2018-04-29T20:20:47.085Z,16.33
2018-04-29T20:23:24.775Z,13.63
2018-04-29T20:26:06.659Z,14.40
2018-04-29T20:28:45.471Z,12.63
2018-04-29T20:31:25.867Z,16.93
2018-04-29T20:34:07.089Z,15.10
2018-04-29T20:36:46.226Z,12.93
2018-04-29T20:39:25.548Z,15.97
2018-04-29T20:42:07.798Z,12.77
2018-04-29T20:44:46.974Z,16.07
2018-04-29T20:47:26.180Z,16.53
2018-04-29T20:50:09.552Z,17.40
2018-04-29T20:52:49.659Z,14.17
2018-04-29T20:55:28.290Z,18.37
2018-04-29T20:58:07.955Z,16.43
2018-04-29T21:00:50.158Z,20.53
2018-04-29T21:03:29.116Z,15.30
2018-04-29T21:06:08.029Z,12.47
2018-04-29T21:08:48.990Z,18.03
2018-04-29T21:11:29.618Z,15.30
2018-04-29T21:14:09.389Z,16.13
2018-04-29T21:16:51.115Z,19.20
2018-04-29T21:19:29.906Z,17.80
2018-04-29T21:22:12.824Z,17.67
2018-04-29T21:24:51.669Z,14.60
2018-04-29T21:27:31.634Z,18.87
2018-04-29T21:30:14.842Z,19.20
2018-04-29T21:32:53.374Z,17.87
2018-04-29T21:35:32.849Z,17.33
2018-04-29T21:38:15.035Z,16.80
2018-04-29T21:40:55.826Z,17.23
2018-04-29T21:43:34.686Z,18.17
2018-04-29T21:46:16.954Z,19.50
2018-04-29T21:48:56.703Z,17.53
2018-04-29T21:51:35.620Z,19.73
2018-04-29T21:54:16.888Z,15.37
2018-04-29T21:56:55.865Z,17.43
2018-04-29T21:59:35.672Z,18.10
2018-04-29T22:02:17.919Z,15.67
2018-04-29T22:04:58.640Z,16.63
2018-04-29T22:07:38.609Z,14.57
2018-04-29T22:10:17.738Z,15.87
2018-04-29T22:12:56.771Z,15.90
2018-04-29T22:15:37.224Z,14.70
2018-04-29T22:18:16.918Z,14.60
2018-04-29T22:21:01.051Z,15.57
2018-04-29T22:23:41.406Z,16.90
2018-04-29T22:26:21.414Z,16.40
2018-04-29T22:29:02.140Z,17.43
2018-04-29T22:31:41.970Z,18.73
2018-04-29T22:34:23.589Z,15.27
2018-04-29T22:37:01.559Z,16.97
2018-04-29T22:39:40.333Z,17.97
2018-04-29T22:42:19.239Z,16.20
2018-04-29T22:44:59.228Z,15.63
2018-04-29T22:47:35.977Z,14.53
2018-04-29T22:50:16.048Z,15.23
2018-04-29T22:52:55.845Z,19.20
2018-04-29T22:55:33.001Z,17.93
2018-04-29T22:58:10.934Z,17.23
2018-04-29T23:00:48.578Z,16.57
2018-04-29T23:03:26.080Z,16.47
2018-04-29T23:06:07.367Z,16.53
2018-04-29T23:08:44.069Z,16.57
2018-04-29T23:11:23.895Z,15.57
2018-04-29T23:14:05.990Z,16.47
2018-04-29T23:16:44.487Z,18.73
2018-04-29T23:19:22.019Z,20.97
2018-04-29T23:21:59.865Z,19.30
2018-04-29T23:24:36.606Z,15.93
2018-04-29T23:27:13.077Z,18.43
2018-04-29T23:29:51.350Z,21.57
2018-04-29T23:32:28.571Z,21.17
2018-04-29T23:35:09.883Z,17.67
2018-04-29T23:37:46.410Z,19.20
2018-04-29T23:40:23.220Z,18.27
2018-04-29T23:43:00.433Z,22.40
2018-04-29T23:45:37.137Z,21.73
2018-04-29T23:48:14.550Z,19.93
2018-04-29T23:50:53.221Z,18.97
2018-04-29T23:53:30.608Z,16.13
2018-04-29T23:56:07.361Z,19.87
2018-04-29T23:58:48.671Z,20.03
